createdAt,value
2019-02-09T00:00:25.546Z,10.47
2019-02-09T00:03:13.786Z,12.73
2019-02-09T00:06:01.952Z,8.43
2019-02-09T00:08:50.350Z,7.30
2019-02-09T00:11:38.357Z,11.70
2019-02-09T00:14:26.164Z,11.80
2019-02-09T00:17:13.789Z,7.93
2019-02-09T00:20:01.784Z,8.47
2019-02-09T00:22:49.771Z,9.70
2019-02-09T00:25:37.994Z,8.47
2019-02-09T00:28:26.182Z,8.97
2019-02-09T00:31:14.304Z,5.47
2019-02-09T00:34:02.132Z,9.87
2019-02-09T00:36:50.424Z,5.67
2019-02-09T00:39:38.630Z,5.70
2019-02-09T00:42:26.908Z,6.53
2019-02-09T00:45:16.037Z,5.53
2019-02-09T00:48:04.256Z,5.03
2019-02-09T00:50:52.187Z,6.03
2019-02-09T00:53:40.247Z,4.00
2019-02-09T00:56:28.221Z,5.10
2019-02-09T00:59:16.219Z,4.63
2019-02-09T01:02:03.993Z,5.97
2019-02-09T01:04:52.819Z,3.73
2019-02-09T01:07:41.119Z,4.63
2019-02-09T01:10:30.834Z,6.43
2019-02-09T01:13:18.685Z,4.57
2019-02-09T01:16:06.718Z,6.47
2019-02-09T01:18:54.899Z,6.67
2019-02-09T01:21:42.670Z,5.17
2019-02-09T01:24:30.542Z,4.30
2019-02-09T01:27:18.409Z,4.67
2019-02-09T01:30:11.279Z,6.70
2019-02-09T01:32:59.524Z,8.63
2019-02-09T01:35:46.958Z,5.70
2019-02-09T01:38:34.742Z,8.27
2019-02-09T01:41:22.555Z,10.47
2019-02-09T01:44:10.583Z,9.13
2019-02-09T01:46:58.605Z,9.40
2019-02-09T01:49:46.821Z,7.73
2019-02-09T01:52:34.729Z,13.17
2019-02-09T01:55:22.653Z,12.37
2019-02-09T01:58:10.808Z,10.17
2019-02-09T02:00:58.677Z,11.87
2019-02-09T02:03:46.923Z,12.13
2019-02-09T02:06:35.045Z,10.23
2019-02-09T02:09:23.335Z,11.47
2019-02-09T02:12:11.252Z,10.23
2019-02-09T02:14:58.873Z,17.93
2019-02-09T02:17:46.934Z,12.70
2019-02-09T02:20:34.854Z,12.33
2019-02-09T02:23:22.620Z,10.67
2019-02-09T02:26:10.910Z,12.60
2019-02-09T02:28:58.793Z,12.20
2019-02-09T02:31:47.547Z,15.20
2019-02-09T02:34:34.905Z,11.47
2019-02-09T02:37:22.865Z,10.33
2019-02-09T02:40:11.894Z,11.73
2019-02-09T02:42:59.924Z,10.53
2019-02-09T02:45:47.659Z,11.00
2019-02-09T02:48:35.344Z,10.13
2019-02-09T02:51:23.418Z,13.30
2019-02-09T02:54:11.456Z,13.20
2019-02-09T02:56:59.674Z,10.10
2019-02-09T02:59:47.903Z,12.50
2019-02-09T03:02:35.749Z,11.30
2019-02-09T03:05:24.543Z,15.13
2019-02-09T03:08:12.296Z,15.60
2019-02-09T03:11:00.215Z,13.60
2019-02-09T03:13:48.106Z,15.93
2019-02-09T03:16:36.156Z,17.07
2019-02-09T03:19:24.248Z,15.73
2019-02-09T03:22:12.214Z,11.00
2019-02-09T03:24:59.987Z,11.73
2019-02-09T03:27:48.415Z,12.30
2019-02-09T03:30:47.219Z,12.97
2019-02-09T03:33:25.860Z,6.90
2019-02-09T03:36:13.721Z,6.23
2019-02-09T03:39:01.623Z,7.90
2019-02-09T03:41:49.482Z,9.77
2019-02-09T03:44:37.562Z,8.77
2019-02-09T03:47:25.426Z,4.00
2019-02-09T03:50:13.928Z,5.23
2019-02-09T03:53:02.546Z,5.00
2019-02-09T03:55:50.419Z,3.70
2019-02-09T03:58:38.454Z,5.17
2019-02-09T04:01:26.443Z,3.80
2019-02-09T04:04:14.365Z,4.07
2019-02-09T04:07:02.346Z,4.10
2019-02-09T04:09:50.364Z,3.17
2019-02-09T04:12:38.622Z,5.77
2019-02-09T04:15:26.831Z,3.20
2019-02-09T04:18:15.128Z,5.10
2019-02-09T04:21:03.089Z,5.53
2019-02-09T04:23:51.305Z,2.97
2019-02-09T04:26:39.390Z,3.47
2019-02-09T04:29:27.252Z,4.03
2019-02-09T04:32:15.308Z,4.20
2019-02-09T04:35:03.082Z,4.27
2019-02-09T04:37:51.049Z,4.73
2019-02-09T04:40:39.307Z,5.17
2019-02-09T04:43:27.055Z,4.20
2019-02-09T04:46:15.081Z,3.30
2019-02-09T04:49:03.136Z,3.40
2019-02-09T04:51:50.980Z,2.70
2019-02-09T04:54:39.107Z,2.73
2019-02-09T04:57:26.982Z,2.13
2019-02-09T05:00:18.507Z,3.13
2019-02-09T05:03:06.744Z,2.13
2019-02-09T05:05:54.772Z,3.27
2019-02-09T05:08:44.001Z,4.77
2019-02-09T05:11:32.147Z,3.30
2019-02-09T05:14:20.381Z,3.53
2019-02-09T05:17:08.367Z,3.93
2019-02-09T05:19:56.641Z,3.80
2019-02-09T05:22:44.710Z,2.73
2019-02-09T05:25:32.562Z,4.50
2019-02-09T05:28:20.735Z,3.07
2019-02-09T05:31:08.572Z,3.97
2019-02-09T05:33:56.377Z,4.00
2019-02-09T05:36:44.591Z,5.23
2019-02-09T05:39:33.782Z,5.47
2019-02-09T05:42:21.706Z,4.33
2019-02-09T05:45:11.957Z,4.13
2019-02-09T05:48:00.154Z,4.20
2019-02-09T05:50:48.313Z,2.87
2019-02-09T05:53:36.260Z,2.97
2019-02-09T05:56:24.231Z,4.63
2019-02-09T05:59:12.187Z,3.70
2019-02-09T06:02:00.216Z,3.57
2019-02-09T06:04:48.424Z,4.13
2019-02-09T06:07:36.594Z,8.13
2019-02-09T06:10:24.800Z,2.63
2019-02-09T06:13:12.902Z,2.70
2019-02-09T06:16:01.207Z,3.77
2019-02-09T06:18:48.853Z,3.70
2019-02-09T06:21:36.400Z,5.23
2019-02-09T06:24:24.569Z,2.30
2019-02-09T06:27:12.819Z,3.50
2019-02-09T06:30:01.165Z,3.17
2019-02-09T06:32:49.382Z,4.37
2019-02-09T06:35:37.594Z,2.50
2019-02-09T06:38:27.095Z,2.87
2019-02-09T06:41:15.233Z,4.43
2019-02-09T06:44:02.936Z,4.07
2019-02-09T06:46:50.687Z,4.13
2019-02-09T06:49:38.847Z,5.00
2019-02-09T06:52:27.033Z,4.00
2019-02-09T06:55:15.600Z,7.67
2019-02-09T06:58:03.759Z,3.27
2019-02-09T07:00:51.972Z,2.10
2019-02-09T07:03:40.285Z,3.60
2019-02-09T07:06:28.470Z,3.87
2019-02-09T07:09:16.429Z,4.63
2019-02-09T07:12:04.598Z,3.80
2019-02-09T07:14:52.684Z,3.33
2019-02-09T07:17:40.658Z,5.53
2019-02-09T07:20:28.714Z,3.70
2019-02-09T07:23:16.631Z,4.00
2019-02-09T07:26:05.266Z,4.80
2019-02-09T07:28:53.149Z,3.30
2019-02-09T07:31:41.513Z,4.10
2019-02-09T07:34:29.650Z,2.87
2019-02-09T07:37:17.871Z,2.60
2019-02-09T07:40:06.716Z,3.20
2019-02-09T07:42:55.058Z,6.00
2019-02-09T07:45:43.258Z,4.57
2019-02-09T07:48:31.130Z,4.63
2019-02-09T07:51:19.094Z,4.60
2019-02-09T07:54:07.003Z,3.13
2019-02-09T07:56:55.095Z,2.67
2019-02-09T07:59:43.341Z,3.57
2019-02-09T08:02:31.793Z,3.50
2019-02-09T08:05:20.211Z,4.33
2019-02-09T08:08:08.311Z,3.60
2019-02-09T08:10:56.127Z,5.80
2019-02-09T08:13:44.206Z,4.10
2019-02-09T08:16:32.349Z,4.17
2019-02-09T08:19:20.610Z,2.93
2019-02-09T08:22:08.969Z,3.60
2019-02-09T08:24:56.609Z,3.57
2019-02-09T08:27:44.435Z,3.33
2019-02-09T08:30:51.527Z,4.13
2019-02-09T08:33:39.747Z,4.60
2019-02-09T08:36:28.597Z,2.33
2019-02-09T08:39:16.534Z,2.37
2019-02-09T08:42:05.031Z,2.57
2019-02-09T08:44:52.846Z,7.17
2019-02-09T08:47:40.914Z,3.20
2019-02-09T08:50:31.510Z,3.23
2019-02-09T08:53:19.460Z,1.87
2019-02-09T08:56:07.567Z,5.40
2019-02-09T08:58:55.370Z,2.33
2019-02-09T09:01:43.237Z,5.40
2019-02-09T09:04:31.405Z,4.20
2019-02-09T09:07:19.685Z,4.80
2019-02-09T09:10:08.811Z,2.83
2019-02-09T09:12:57.069Z,3.33
2019-02-09T09:15:47.680Z,3.50
2019-02-09T09:18:35.219Z,2.73
2019-02-09T09:21:23.216Z,4.13
2019-02-09T09:24:11.260Z,3.07
2019-02-09T09:26:59.376Z,3.70
2019-02-09T09:29:47.271Z,4.53
2019-02-09T09:32:34.887Z,4.73
2019-02-09T09:35:22.826Z,3.47
2019-02-09T09:38:10.681Z,1.77
2019-02-09T09:40:58.969Z,5.13
2019-02-09T09:43:47.157Z,3.63
2019-02-09T09:46:35.205Z,2.53
2019-02-09T09:49:23.582Z,4.17
2019-02-09T09:52:11.442Z,2.67
2019-02-09T09:54:59.381Z,2.20
2019-02-09T09:57:47.934Z,3.97
2019-02-09T10:00:35.834Z,2.37
2019-02-09T10:03:23.883Z,2.63
2019-02-09T10:06:11.964Z,3.20
2019-02-09T10:08:59.628Z,2.13
2019-02-09T10:11:47.513Z,2.57
2019-02-09T10:14:35.712Z,2.80
2019-02-09T10:17:23.409Z,2.70
2019-02-09T10:20:13.599Z,3.67
2019-02-09T10:23:01.378Z,4.20
2019-02-09T10:25:49.292Z,3.03
2019-02-09T10:28:37.413Z,2.30
2019-02-09T10:31:25.238Z,1.63
2019-02-09T10:34:13.578Z,3.37
2019-02-09T10:37:01.483Z,3.13
2019-02-09T10:39:49.800Z,2.30
2019-02-09T10:42:37.848Z,2.37
2019-02-09T10:45:27.311Z,4.20
2019-02-09T10:48:15.487Z,2.13
2019-02-09T10:51:03.431Z,1.50
2019-02-09T10:53:51.603Z,2.10
2019-02-09T10:56:39.249Z,2.13
2019-02-09T10:59:27.225Z,3.00
2019-02-09T11:02:15.386Z,2.50
2019-02-09T11:05:03.228Z,3.13
2019-02-09T11:07:51.052Z,3.07
2019-02-09T11:10:38.718Z,2.83
2019-02-09T11:13:26.769Z,2.87
2019-02-09T11:16:15.331Z,2.10
2019-02-09T11:19:03.255Z,3.00
2019-02-09T11:21:51.328Z,4.53
2019-02-09T11:24:39.156Z,4.30
2019-02-09T11:27:28.167Z,4.93
2019-02-09T11:30:18.761Z,2.90
2019-02-09T11:33:06.686Z,2.60
2019-02-09T11:35:54.652Z,2.53
2019-02-09T11:38:42.510Z,3.10
2019-02-09T11:41:30.974Z,2.83
2019-02-09T11:44:18.444Z,2.00
2019-02-09T11:47:06.117Z,5.43
2019-02-09T11:49:54.271Z,2.23
2019-02-09T11:52:42.781Z,2.50
2019-02-09T11:55:30.949Z,2.80
2019-02-09T11:58:19.280Z,3.13
2019-02-09T12:01:07.157Z,2.47
2019-02-09T12:03:55.599Z,1.93
2019-02-09T12:06:43.176Z,2.83
2019-02-09T12:09:31.537Z,3.03
2019-02-09T12:12:19.636Z,3.80
2019-02-09T12:15:11.089Z,3.83
2019-02-09T12:17:59.156Z,3.00
2019-02-09T12:20:46.947Z,2.77
2019-02-09T12:23:34.958Z,3.27
2019-02-09T12:26:22.573Z,4.10
2019-02-09T12:29:10.949Z,1.70
2019-02-09T12:31:58.707Z,3.83
2019-02-09T12:34:46.632Z,1.87
2019-02-09T12:37:34.584Z,7.50
2019-02-09T12:40:25.411Z,2.10
2019-02-09T12:43:13.362Z,2.30
2019-02-09T12:46:01.341Z,1.37
2019-02-09T12:48:49.460Z,2.60
2019-02-09T12:51:37.693Z,4.10
2019-02-09T12:54:26.027Z,3.40
2019-02-09T12:57:13.716Z,3.27
2019-02-09T13:00:01.697Z,4.10
2019-02-09T13:02:49.826Z,3.97
2019-02-09T13:05:37.895Z,2.60
2019-02-09T13:08:25.699Z,1.63
2019-02-09T13:11:13.665Z,2.07
2019-02-09T13:14:01.486Z,3.07
2019-02-09T13:16:49.491Z,3.50
2019-02-09T13:19:37.005Z,1.57
2019-02-09T13:22:25.095Z,1.93
2019-02-09T13:25:12.738Z,2.73
2019-02-09T13:28:00.820Z,2.80
2019-02-09T13:30:48.662Z,3.77
2019-02-09T13:33:39.004Z,1.70
2019-02-09T13:36:25.875Z,4.27
2019-02-09T13:39:13.969Z,2.47
2019-02-09T13:42:02.071Z,3.67
2019-02-09T13:44:50.293Z,2.63
2019-02-09T13:47:38.097Z,2.60
2019-02-09T13:50:27.194Z,6.57
2019-02-09T13:53:15.961Z,9.53
2019-02-09T13:56:03.860Z,4.33
2019-02-09T13:58:51.835Z,3.53
2019-02-09T14:01:39.747Z,4.37
2019-02-09T14:04:27.329Z,3.67
2019-02-09T14:07:15.170Z,6.40
2019-02-09T14:10:03.515Z,2.83
2019-02-09T14:12:51.747Z,5.07
2019-02-09T14:15:39.884Z,2.60
2019-02-09T14:18:27.759Z,3.43
2019-02-09T14:21:15.720Z,2.93
2019-02-09T14:24:04.009Z,3.33
2019-02-09T14:26:51.942Z,3.97
2019-02-09T14:29:39.880Z,7.00
2019-02-09T14:32:28.044Z,5.23
2019-02-09T14:35:16.666Z,3.20
2019-02-09T14:38:05.306Z,3.83
2019-02-09T14:40:53.419Z,4.00
2019-02-09T14:43:41.415Z,2.37
2019-02-09T14:46:29.801Z,4.63
2019-02-09T14:49:17.681Z,2.23
2019-02-09T14:52:06.189Z,3.67
2019-02-09T14:54:53.952Z,3.77
2019-02-09T14:57:42.214Z,3.13
2019-02-09T15:00:33.214Z,3.43
2019-02-09T15:03:26.990Z,5.20
2019-02-09T15:06:10.452Z,1.77
2019-02-09T15:08:58.070Z,2.70
2019-02-09T15:11:46.210Z,2.27
2019-02-09T15:14:34.571Z,2.57
2019-02-09T15:17:22.702Z,2.63
2019-02-09T15:20:14.224Z,1.73
2019-02-09T15:23:02.055Z,1.50
2019-02-09T15:25:50.071Z,2.40
2019-02-09T15:28:38.242Z,1.60
2019-02-09T15:31:26.034Z,1.73
2019-02-09T15:34:13.839Z,1.67
2019-02-09T15:37:01.922Z,3.17
2019-02-09T15:39:49.832Z,5.20
2019-02-09T15:42:37.826Z,2.10
2019-02-09T15:45:26.173Z,1.60
2019-02-09T15:48:14.062Z,2.00
2019-02-09T15:51:02.234Z,1.77
2019-02-09T15:53:50.506Z,2.20
2019-02-09T15:56:38.013Z,2.00
2019-02-09T15:59:26.133Z,0.97
2019-02-09T16:02:14.343Z,2.20
2019-02-09T16:05:02.794Z,3.13
2019-02-09T16:07:50.649Z,2.30
2019-02-09T16:10:38.968Z,3.33
2019-02-09T16:13:26.481Z,4.03
2019-02-09T16:16:14.744Z,2.70
2019-02-09T16:19:02.731Z,2.37
2019-02-09T16:21:50.488Z,1.97
2019-02-09T16:24:38.427Z,2.43
2019-02-09T16:27:26.663Z,1.77
2019-02-09T16:30:18.679Z,3.70
2019-02-09T16:33:06.629Z,2.30
2019-02-09T16:35:54.577Z,3.60
2019-02-09T16:38:42.803Z,2.60
2019-02-09T16:41:30.854Z,3.50
2019-02-09T16:44:18.721Z,2.73
2019-02-09T16:47:06.890Z,1.83
2019-02-09T16:49:54.454Z,2.83
2019-02-09T16:52:42.813Z,1.43
2019-02-09T16:55:30.935Z,2.93
2019-02-09T16:58:18.803Z,3.23
2019-02-09T17:01:07.095Z,3.63
2019-02-09T17:03:54.724Z,4.33
2019-02-09T17:06:42.835Z,3.13
2019-02-09T17:09:30.858Z,4.10
2019-02-09T17:12:18.831Z,3.67
2019-02-09T17:15:07.330Z,3.13
2019-02-09T17:17:55.074Z,3.83
2019-02-09T17:20:42.948Z,3.10
2019-02-09T17:23:30.891Z,4.47
2019-02-09T17:26:18.401Z,4.10
2019-02-09T17:29:07.080Z,4.80
2019-02-09T17:31:54.966Z,3.87
2019-02-09T17:34:42.855Z,2.50
2019-02-09T17:37:30.708Z,4.07
2019-02-09T17:40:20.761Z,3.17
2019-02-09T17:43:09.400Z,4.30
2019-02-09T17:46:10.693Z,2.33
2019-02-09T17:48:58.612Z,4.60
2019-02-09T17:51:46.468Z,6.77
2019-02-09T17:54:34.020Z,8.03
2019-02-09T17:57:21.544Z,5.77
2019-02-09T18:00:13.368Z,7.27
2019-02-09T18:03:01.706Z,8.17
2019-02-09T18:05:49.709Z,3.40
2019-02-09T18:08:37.265Z,5.23
2019-02-09T18:11:24.663Z,3.07
2019-02-09T18:14:13.044Z,2.77
2019-02-09T18:17:01.395Z,4.47
2019-02-09T18:19:49.222Z,6.93
2019-02-09T18:22:37.203Z,4.93
2019-02-09T18:25:25.245Z,3.07
2019-02-09T18:28:13.080Z,6.63
2019-02-09T18:31:01.029Z,4.93
2019-02-09T18:33:48.858Z,4.53
2019-02-09T18:36:36.917Z,3.27
2019-02-09T18:39:25.014Z,3.10
2019-02-09T18:42:12.656Z,3.80
2019-02-09T18:45:00.249Z,6.73
2019-02-09T18:47:48.812Z,5.33
2019-02-09T18:50:36.775Z,3.57
2019-02-09T18:53:24.713Z,4.87
2019-02-09T18:56:12.846Z,2.70
2019-02-09T18:59:00.829Z,4.33
2019-02-09T19:01:48.849Z,3.20
2019-02-09T19:04:37.016Z,4.23
2019-02-09T19:07:25.358Z,4.10
2019-02-09T19:10:18.878Z,4.70
2019-02-09T19:13:07.149Z,3.60
2019-02-09T19:15:55.623Z,4.80
2019-02-09T19:18:43.709Z,3.83
2019-02-09T19:21:31.833Z,5.00
2019-02-09T19:24:19.654Z,4.43
2019-02-09T19:27:07.959Z,3.50
2019-02-09T19:29:56.241Z,3.97
2019-02-09T19:32:43.804Z,4.97
2019-02-09T19:35:31.905Z,4.50
2019-02-09T19:38:19.881Z,6.17
2019-02-09T19:41:07.595Z,4.27
2019-02-09T19:43:55.666Z,4.83
2019-02-09T19:46:43.597Z,4.47
2019-02-09T19:49:31.768Z,5.07
2019-02-09T19:52:19.538Z,5.40
2019-02-09T19:55:09.890Z,5.90
2019-02-09T19:57:58.072Z,3.37
2019-02-09T20:00:46.217Z,3.67
2019-02-09T20:03:34.067Z,8.20
2019-02-09T20:06:21.818Z,5.67
2019-02-09T20:09:10.850Z,4.73
2019-02-09T20:11:59.164Z,4.30
2019-02-09T20:14:47.627Z,4.70
2019-02-09T20:17:35.455Z,6.33
2019-02-09T20:20:23.335Z,3.03
2019-02-09T20:23:11.149Z,4.13
2019-02-09T20:25:59.318Z,4.93
2019-02-09T20:28:47.354Z,5.13
2019-02-09T20:31:35.102Z,6.77
2019-02-09T20:34:22.900Z,4.07
2019-02-09T20:37:10.682Z,6.37
2019-02-09T20:39:59.054Z,6.57
2019-02-09T20:42:46.717Z,5.87
2019-02-09T20:45:34.305Z,8.13
2019-02-09T20:48:22.335Z,5.03
2019-02-09T20:51:10.477Z,4.40
2019-02-09T20:53:58.630Z,8.13
2019-02-09T20:56:46.179Z,6.37
2019-02-09T20:59:34.462Z,5.70
2019-02-09T21:02:22.567Z,5.03
2019-02-09T21:05:10.805Z,6.87
2019-02-09T21:07:59.067Z,6.53
2019-02-09T21:10:47.202Z,9.07
2019-02-09T21:13:35.336Z,7.97
2019-02-09T21:16:23.222Z,6.13
2019-02-09T21:19:11.366Z,7.07
2019-02-09T21:21:59.383Z,6.83
2019-02-09T21:24:46.926Z,7.23
2019-02-09T21:27:34.750Z,7.17
2019-02-09T21:30:22.714Z,6.30
2019-02-09T21:33:10.884Z,8.33
2019-02-09T21:35:59.041Z,5.93
2019-02-09T21:38:47.020Z,8.80
2019-02-09T21:41:36.194Z,6.30
2019-02-09T21:44:24.475Z,6.37
2019-02-09T21:47:12.672Z,7.50
2019-02-09T21:50:00.832Z,7.87
2019-02-09T21:52:48.781Z,8.83
2019-02-09T21:55:36.789Z,6.73
2019-02-09T21:58:25.099Z,8.20
2019-02-09T22:01:13.267Z,6.33
2019-02-09T22:04:01.255Z,8.13
2019-02-09T22:06:49.089Z,6.73
2019-02-09T22:09:37.221Z,8.37
2019-02-09T22:12:25.071Z,5.60
2019-02-09T22:15:13.074Z,7.57
2019-02-09T22:18:01.006Z,6.00
2019-02-09T22:20:52.781Z,6.63
2019-02-09T22:23:38.753Z,5.67
2019-02-09T22:26:26.330Z,5.80
2019-02-09T22:29:14.022Z,7.83
2019-02-09T22:32:01.981Z,6.53
2019-02-09T22:34:50.112Z,7.13
2019-02-09T22:37:37.976Z,5.33
2019-02-09T22:40:28.149Z,6.50
2019-02-09T22:43:16.013Z,5.07
2019-02-09T22:46:04.161Z,5.77
2019-02-09T22:48:52.285Z,8.80
2019-02-09T22:51:40.048Z,6.80
2019-02-09T22:54:28.820Z,5.93
2019-02-09T22:57:16.824Z,8.70
2019-02-09T23:00:09.818Z,7.80
2019-02-09T23:02:59.247Z,6.53
2019-02-09T23:06:19.455Z,6.23
2019-02-09T23:09:09.880Z,7.13
2019-02-09T23:11:57.699Z,5.50
2019-02-09T23:14:45.602Z,5.70
2019-02-09T23:17:33.336Z,5.33
2019-02-09T23:20:21.275Z,7.47
2019-02-09T23:23:09.271Z,8.83
2019-02-09T23:25:57.082Z,5.50
2019-02-09T23:28:45.300Z,5.10
2019-02-09T23:31:33.089Z,5.37
2019-02-09T23:34:20.980Z,8.87
2019-02-09T23:37:09.057Z,6.17
2019-02-09T23:39:57.230Z,6.60
2019-02-09T23:42:45.350Z,5.37
2019-02-09T23:45:33.157Z,6.73
2019-02-09T23:48:21.045Z,7.10
2019-02-09T23:51:09.356Z,6.53
2019-02-09T23:53:57.489Z,5.67
2019-02-09T23:56:45.461Z,4.03
2019-02-09T23:59:33.328Z,4.23
